Time;durP1;ratioP1;P1;durP2;ratioP2;P2;SDS_P1;SDS_P2;PMS_P1;PMS_P2;Temp;Humidity;BMP_temperature;BMP_pressure;BME280_temperature;BME280_humidity;BME280_pressure;Samples;Min_cycle;Max_cycle;Signal;HPM_P1;HPM_P2
2023/04/14 00:01:39;;;;;;;;;;;;;;;4.85;100.00;100786.06;10397125;28;19929;-69
2023/04/14 00:06:41;;;;;;;;;;;;;;;4.32;100.00;100791.25;10395823;28;20335;-63
2023/04/14 00:11:43;;;;;;;;;;;;;;;4.54;100.00;100791.41;10374408;28;19929;-63
2023/04/14 00:16:46;;;;;;;;;;;;;;;4.39;100.00;100790.16;10375333;28;19932;-63
2023/04/14 00:21:48;;;;;;;;;;;;;;;4.49;100.00;100799.34;10375431;28;20038;-63
2023/04/14 00:26:50;;;;;;;;;;;;;;;4.18;100.00;100802.88;10379957;28;19932;-63
2023/04/14 00:31:53;;;;;;;;;;;;;;;4.01;100.00;100806.00;10375200;28;19976;-63
2023/04/14 00:36:55;;;;;;;;;;;;;;;3.98;100.00;100798.31;10410470;28;19988;-64
2023/04/14 00:41:59;;;;;;;;;;;;;;;3.76;100.00;100810.19;10415797;28;19931;-64
2023/04/14 00:47:01;;;;;;;;;;;;;;;3.86;100.00;100811.63;10399073;28;19980;-64
2023/04/14 00:52:04;;;;;;;;;;;;;;;3.72;100.00;100819.81;10373151;28;19926;-64
2023/04/14 00:57:08;;;;;;;;;;;;;;;3.59;100.00;100814.13;10373556;28;19947;-64
2023/04/14 01:02:10;;;;;;;;;;;;;;;3.91;100.00;100826.13;10373751;28;19926;-66
2023/04/14 01:07:13;;;;;;;;;;;;;;;3.90;100.00;100827.03;10411915;28;19932;-66
2023/04/14 01:12:34;;;;;;;;;;;;;;;3.79;100.00;100823.91;10411991;28;20340;-66
2023/04/14 01:17:43;;;;;;;;;;;;;;;3.76;100.00;100821.41;10378032;28;19928;-66
2023/04/14 01:22:48;;;;;;;;;;;;;;;3.61;100.00;100827.00;10414382;28;19972;-66
2023/04/14 01:27:54;;;;;;;;;;;;;;;3.45;100.00;100831.78;10416383;28;19925;-66
2023/04/14 01:32:57;;;;;;;;;;;;;;;3.49;100.00;100826.47;10421088;28;19925;-66
2023/04/14 01:38:01;;;;;;;;;;;;;;;3.52;100.00;100828.97;10421472;28;19936;-66
2023/04/14 01:43:04;;;;;;;;;;;;;;;3.40;100.00;100829.31;10413897;28;19929;-66
2023/04/14 01:48:07;;;;;;;;;;;;;;;3.47;100.00;100830.84;10386788;28;19925;-66
2023/04/14 01:53:10;;;;;;;;;;;;;;;3.59;100.00;100834.81;10386230;28;20423;-66
2023/04/14 01:58:12;;;;;;;;;;;;;;;3.37;100.00;100846.66;10419590;28;19947;-66
2023/04/14 02:03:15;;;;;;;;;;;;;;;3.34;100.00;100842.41;10419884;28;19979;-65
2023/04/14 02:08:18;;;;;;;;;;;;;;;3.07;100.00;100852.59;10393830;28;19972;-66
2023/04/14 02:13:20;;;;;;;;;;;;;;;3.11;100.00;100855.94;10390006;28;19971;-66
2023/04/14 02:18:23;;;;;;;;;;;;;;;3.09;100.00;100858.59;10420435;28;19929;-66
2023/04/14 02:23:25;;;;;;;;;;;;;;;3.27;100.00;100862.41;10404315;28;20376;-66
2023/04/14 02:28:28;;;;;;;;;;;;;;;3.38;100.00;100866.47;10416761;28;19929;-66
2023/04/14 02:33:30;;;;;;;;;;;;;;;3.07;100.00;100872.44;10416991;28;19925;-65
2023/04/14 02:38:34;;;;;;;;;;;;;;;3.13;100.00;100875.72;10417507;28;19929;-64
2023/04/14 02:43:41;;;;;;;;;;;;;;;2.94;100.00;100871.88;10404723;28;19972;-65
2023/04/14 02:48:43;;;;;;;;;;;;;;;3.02;100.00;100875.13;10377041;28;19925;-66
2023/04/14 02:53:45;;;;;;;;;;;;;;;3.08;100.00;100874.16;10376718;28;19971;-65
2023/04/14 02:58:47;;;;;;;;;;;;;;;2.99;100.00;100875.19;10376240;28;20418;-66
2023/04/14 03:03:50;;;;;;;;;;;;;;;2.95;100.00;100878.75;10390562;28;19925;-66
2023/04/14 03:08:53;;;;;;;;;;;;;;;3.00;100.00;100884.66;10386437;28;19925;-65
2023/04/14 03:13:55;;;;;;;;;;;;;;;3.07;100.00;100886.22;10376231;28;19925;-66
2023/04/14 03:18:57;;;;;;;;;;;;;;;3.10;100.00;100880.97;10375416;28;19949;-66
2023/04/14 03:24:00;;;;;;;;;;;;;;;3.15;100.00;100873.94;10393388;28;19929;-66
2023/04/14 03:29:02;;;;;;;;;;;;;;;3.17;100.00;100864.38;10385797;28;19929;-66
2023/04/14 03:34:04;;;;;;;;;;;;;;;3.42;100.00;100871.53;10374333;28;20373;-66
2023/04/14 03:39:07;;;;;;;;;;;;;;;3.32;100.00;100872.66;10374644;28;19929;-66
2023/04/14 03:44:14;;;;;;;;;;;;;;;3.45;100.00;100866.28;10396879;28;19932;-65
2023/04/14 03:49:16;;;;;;;;;;;;;;;3.52;100.00;100885.06;10382023;28;19929;-66
2023/04/14 03:54:22;;;;;;;;;;;;;;;3.83;100.00;100871.28;10395085;28;19929;-66
2023/04/14 03:59:25;;;;;;;;;;;;;;;3.57;100.00;100877.19;10414951;28;19971;-66
2023/04/14 04:04:27;;;;;;;;;;;;;;;3.53;100.00;100886.75;10388710;28;19926;-66
2023/04/14 04:09:30;;;;;;;;;;;;;;;3.31;100.00;100891.66;10409147;28;20269;-67
2023/04/14 04:14:32;;;;;;;;;;;;;;;3.26;100.00;100893.50;10415498;28;19928;-68
2023/04/14 04:19:35;;;;;;;;;;;;;;;3.30;100.00;100889.97;10415215;28;20409;-63
2023/04/14 04:24:37;;;;;;;;;;;;;;;3.02;100.00;100911.34;10385452;28;20300;-63
2023/04/14 04:29:40;;;;;;;;;;;;;;;3.03;100.00;100900.13;10375343;28;19999;-63
2023/04/14 04:34:42;;;;;;;;;;;;;;;3.11;100.00;100902.50;10373766;28;19925;-63
2023/04/14 04:39:44;;;;;;;;;;;;;;;3.20;100.00;100912.63;10373942;28;19980;-63
2023/04/14 04:44:46;;;;;;;;;;;;;;;3.31;100.00;100908.06;10380516;28;20384;-63
2023/04/14 04:49:49;;;;;;;;;;;;;;;3.23;100.00;100901.34;10375770;28;19925;-63
2023/04/14 04:54:51;;;;;;;;;;;;;;;3.46;100.00;100900.75;10377959;28;19975;-63
2023/04/14 04:59:53;;;;;;;;;;;;;;;3.46;100.00;100905.94;10388638;28;19926;-63
2023/04/14 05:04:56;;;;;;;;;;;;;;;3.53;100.00;100903.16;10384906;28;19926;-63
2023/04/14 05:09:58;;;;;;;;;;;;;;;3.58;100.00;100904.78;10385179;28;19979;-63
2023/04/14 05:15:00;;;;;;;;;;;;;;;3.49;100.00;100906.69;10408284;28;20225;-63
2023/04/14 05:20:04;;;;;;;;;;;;;;;3.61;100.00;100910.72;10380891;28;20372;-63
2023/04/14 05:25:06;;;;;;;;;;;;;;;3.52;100.00;100903.19;10380045;28;20281;-63
2023/04/14 05:30:09;;;;;;;;;;;;;;;3.41;100.00;100903.47;10381254;28;20389;-63
2023/04/14 05:35:11;;;;;;;;;;;;;;;3.69;100.00;100913.94;10380652;28;19988;-63
2023/04/14 05:40:14;;;;;;;;;;;;;;;3.76;100.00;100913.78;10380517;28;20388;-63
2023/04/14 05:45:16;;;;;;;;;;;;;;;3.81;100.00;100917.94;10380345;28;19980;-63
2023/04/14 05:50:18;;;;;;;;;;;;;;;3.65;100.00;100917.53;10380153;28;20328;-63
2023/04/14 05:55:21;;;;;;;;;;;;;;;3.89;100.00;100904.78;10380174;28;20447;-63
2023/04/14 06:00:24;;;;;;;;;;;;;;;4.17;100.00;100907.44;10380731;28;19926;-63
2023/04/14 06:05:26;;;;;;;;;;;;;;;4.57;100.00;100905.41;10379582;28;19934;-63
2023/04/14 06:10:30;;;;;;;;;;;;;;;4.88;100.00;100907.06;10380516;28;20015;-63
2023/04/14 06:15:32;;;;;;;;;;;;;;;4.84;100.00;100903.69;10379603;28;19926;-63
2023/04/14 06:20:35;;;;;;;;;;;;;;;5.48;100.00;100897.25;10379604;28;20414;-63
2023/04/14 06:25:37;;;;;;;;;;;;;;;5.70;100.00;100900.81;10378908;28;19929;-63
2023/04/14 06:30:39;;;;;;;;;;;;;;;5.80;98.92;100900.47;10379510;28;19925;-63
2023/04/14 06:35:42;;;;;;;;;;;;;;;5.85;96.72;100898.56;10360888;28;19926;-63
2023/04/14 06:40:44;;;;;;;;;;;;;;;5.97;99.07;100894.69;10378165;28;19925;-63
2023/04/14 06:45:47;;;;;;;;;;;;;;;6.41;95.54;100897.41;10378337;28;19929;-63
2023/04/14 06:50:53;;;;;;;;;;;;;;;6.54;98.30;100901.22;10377198;28;20016;-63
2023/04/14 06:55:59;;;;;;;;;;;;;;;6.94;97.01;100901.38;10378156;28;19926;-63
2023/04/14 07:01:01;;;;;;;;;;;;;;;7.30;93.74;100892.97;10378596;28;19929;-63
2023/04/14 07:06:05;;;;;;;;;;;;;;;7.54;88.56;100886.72;10377877;28;19958;-63
2023/04/14 07:11:09;;;;;;;;;;;;;;;7.77;86.59;100872.69;10375919;28;19980;-64
2023/04/14 07:16:11;;;;;;;;;;;;;;;7.80;87.16;100882.97;10375788;28;20265;-63
2023/04/14 07:21:14;;;;;;;;;;;;;;;8.54;85.68;100889.22;10377362;28;19925;-63
2023/04/14 07:26:16;;;;;;;;;;;;;;;8.66;83.56;100875.56;10376552;28;19980;-63
2023/04/14 07:31:18;;;;;;;;;;;;;;;8.79;83.04;100874.97;10376309;28;20384;-63
2023/04/14 07:36:21;;;;;;;;;;;;;;;9.54;79.86;100870.38;10376714;28;19979;-64
2023/04/14 07:41:23;;;;;;;;;;;;;;;9.71;78.47;100853.78;10359263;28;19926;-64
2023/04/14 07:46:26;;;;;;;;;;;;;;;10.14;74.24;100862.81;10374755;28;20333;-64
2023/04/14 07:51:28;;;;;;;;;;;;;;;10.71;73.20;100866.69;10374530;28;19925;-66
2023/04/14 07:56:31;;;;;;;;;;;;;;;10.81;71.34;100865.22;10375366;28;20373;-67
2023/04/14 08:01:33;;;;;;;;;;;;;;;10.66;72.47;100861.72;10375928;28;19926;-66
2023/04/14 08:06:35;;;;;;;;;;;;;;;11.68;70.95;100861.84;10375801;28;20380;-68
2023/04/14 08:11:37;;;;;;;;;;;;;;;12.06;70.47;100852.56;10357762;28;20000;-64
2023/04/14 08:16:40;;;;;;;;;;;;;;;11.60;68.53;100856.22;10375524;28;19929;-64
2023/04/14 08:21:42;;;;;;;;;;;;;;;11.80;69.60;100860.25;10374862;28;20359;-63
2023/04/14 08:26:45;;;;;;;;;;;;;;;12.24;66.45;100854.03;10375867;28;19926;-63
2023/04/14 08:31:47;;;;;;;;;;;;;;;12.13;64.71;100860.91;10375878;28;19929;-64
2023/04/14 08:36:49;;;;;;;;;;;;;;;12.80;63.76;100853.09;10377035;28;19929;-64
2023/04/14 08:41:54;;;;;;;;;;;;;;;13.15;61.77;100858.63;10382837;28;20463;-64
2023/04/14 08:46:57;;;;;;;;;;;;;;;12.47;59.88;100851.69;10381895;28;19980;-63
2023/04/14 08:51:59;;;;;;;;;;;;;;;13.61;57.48;100851.19;10381858;28;19925;-64
2023/04/14 08:57:01;;;;;;;;;;;;;;;14.11;58.56;100845.00;10381557;28;19930;-64
2023/04/14 09:02:06;;;;;;;;;;;;;;;14.49;55.18;100840.53;10380817;28;19926;-69
2023/04/14 09:07:09;;;;;;;;;;;;;;;14.01;54.19;100836.09;10382442;28;19971;-68
2023/04/14 09:12:15;;;;;;;;;;;;;;;14.50;56.36;100827.25;10382269;28;19926;-68
2023/04/14 09:17:17;;;;;;;;;;;;;;;15.19;54.30;100831.81;10380852;28;19987;-69
2023/04/14 09:22:20;;;;;;;;;;;;;;;15.95;54.09;100829.50;10380668;28;19984;-69
2023/04/14 09:27:22;;;;;;;;;;;;;;;15.37;53.83;100829.59;10381023;28;19952;-69
2023/04/14 09:32:24;;;;;;;;;;;;;;;16.26;51.83;100828.84;10381462;28;19932;-69
2023/04/14 09:37:27;;;;;;;;;;;;;;;15.52;51.85;100826.72;10381161;28;19971;-68
2023/04/14 09:42:39;;;;;;;;;;;;;;;16.39;48.79;100810.16;10379847;28;19926;-69
2023/04/14 09:47:41;;;;;;;;;;;;;;;16.86;48.35;100816.84;10378287;28;19926;-69
2023/04/14 09:52:43;;;;;;;;;;;;;;;15.36;49.44;100827.88;10379967;28;20288;-69
2023/04/14 09:57:50;;;;;;;;;;;;;;;18.25;47.78;100806.72;10379764;28;19926;-69
2023/04/14 10:03:00;;;;;;;;;;;;;;;19.37;47.39;100799.06;10379237;28;20020;-69
2023/04/14 10:08:02;;;;;;;;;;;;;;;18.08;48.25;100798.47;10380185;28;19936;-64
2023/04/14 10:13:05;;;;;;;;;;;;;;;19.47;45.33;100796.41;10378051;28;19925;-64
2023/04/14 10:18:07;;;;;;;;;;;;;;;19.64;45.65;100790.28;10379668;28;19976;-64
2023/04/14 10:23:10;;;;;;;;;;;;;;;20.51;44.62;100787.22;10378371;28;19980;-64
2023/04/14 10:28:12;;;;;;;;;;;;;;;18.96;43.98;100773.78;10379836;28;20016;-64
2023/04/14 10:33:15;;;;;;;;;;;;;;;20.20;43.29;100769.84;10377945;28;19932;-69
2023/04/14 10:38:17;;;;;;;;;;;;;;;19.08;43.60;100777.91;10377463;28;19975;-69
2023/04/14 10:43:20;;;;;;;;;;;;;;;19.58;41.83;100761.66;10361852;28;19932;-69
2023/04/14 10:48:27;;;;;;;;;;;;;;;20.17;39.63;100751.56;10378177;28;20339;-69
2023/04/14 10:53:33;;;;;;;;;;;;;;;20.62;40.06;100752.41;10377192;28;20109;-69
2023/04/14 10:58:36;;;;;;;;;;;;;;;19.43;44.38;100748.06;10377234;28;19932;-70
2023/04/14 11:03:44;;;;;;;;;;;;;;;18.49;41.87;100740.03;10377376;28;19926;-69
2023/04/14 11:08:48;;;;;;;;;;;;;;;16.12;47.29;100743.63;10377745;28;19926;-69
2023/04/14 11:14:08;;;;;;;;;;;;;;;20.44;42.93;100725.84;10375770;28;19929;-70
2023/04/14 11:19:14;;;;;;;;;;;;;;;21.11;38.31;100725.31;10375648;28;19932;-65
2023/04/14 11:24:16;;;;;;;;;;;;;;;21.52;38.89;100714.88;10376854;28;20265;-66
2023/04/14 11:29:19;;;;;;;;;;;;;;;22.28;35.70;100726.34;10375221;28;19926;-65
2023/04/14 11:34:27;;;;;;;;;;;;;;;22.29;36.99;100729.84;10376745;28;19933;-65
2023/04/14 11:39:29;;;;;;;;;;;;;;;21.01;37.77;100716.59;10374994;28;20438;-65
2023/04/14 11:44:32;;;;;;;;;;;;;;;19.16;39.92;100718.84;10374692;28;20376;-65
2023/04/14 11:49:35;;;;;;;;;;;;;;;21.22;39.47;100708.25;10375708;28;19926;-65
2023/04/14 11:54:37;;;;;;;;;;;;;;;21.58;34.87;100700.88;10374955;28;19925;-65
2023/04/14 11:59:41;;;;;;;;;;;;;;;24.52;34.30;100691.28;10403068;22;19925;-63
2023/04/14 12:04:47;;;;;;;;;;;;;;;23.00;35.53;100704.25;10456556;28;19928;-63
2023/04/14 12:09:50;;;;;;;;;;;;;;;20.39;38.48;100699.72;10457417;28;19925;-63
2023/04/14 12:14:52;;;;;;;;;;;;;;;21.33;33.88;100689.28;10456992;28;20486;-63
2023/04/14 12:19:54;;;;;;;;;;;;;;;24.04;33.32;100690.69;10456935;28;20272;-63
2023/04/14 12:24:57;;;;;;;;;;;;;;;20.10;40.05;100697.31;10456846;28;20371;-63
2023/04/14 12:29:59;;;;;;;;;;;;;;;23.07;36.92;100685.72;10456945;28;19947;-63
2023/04/14 12:35:01;;;;;;;;;;;;;;;23.08;33.74;100688.22;10457190;28;19925;-63
2023/04/14 12:40:05;;;;;;;;;;;;;;;18.68;37.17;100699.41;10456555;28;19924;-63
2023/04/14 12:45:08;;;;;;;;;;;;;;;21.06;38.91;100693.00;10455259;28;19935;-63
2023/04/14 12:50:24;;;;;;;;;;;;;;;22.60;35.52;100687.31;10439380;28;19971;-63
2023/04/14 12:55:28;;;;;;;;;;;;;;;20.86;37.77;100684.41;10439278;28;19924;-63
2023/04/14 13:00:30;;;;;;;;;;;;;;;22.78;35.44;100669.28;10456203;28;20364;-63
2023/04/14 13:05:33;;;;;;;;;;;;;;;19.50;39.29;100687.22;10456689;28;19925;-63
2023/04/14 13:10:35;;;;;;;;;;;;;;;18.02;38.64;100682.44;10455883;28;20330;-63
2023/04/14 13:15:38;;;;;;;;;;;;;;;21.45;37.61;100677.38;10456288;28;19936;-63
2023/04/14 13:21:02;;;;;;;;;;;;;;;20.78;35.14;100661.28;10455717;28;19924;-63
2023/04/14 13:26:05;;;;;;;;;;;;;;;21.21;35.05;100662.13;10463813;28;19940;-63
2023/04/14 13:31:07;;;;;;;;;;;;;;;19.87;36.34;100665.06;10463699;28;19925;-63
2023/04/14 13:36:09;;;;;;;;;;;;;;;23.80;34.44;100654.25;10463626;28;19925;-63
2023/04/14 13:41:14;;;;;;;;;;;;;;;20.57;33.67;100669.59;10462797;28;20375;-63
2023/04/14 13:46:16;;;;;;;;;;;;;;;20.62;33.28;100654.00;10463104;28;19970;-63
2023/04/14 13:51:20;;;;;;;;;;;;;;;19.98;35.85;100648.88;10461447;28;19932;-63
2023/04/14 13:56:24;;;;;;;;;;;;;;;17.92;38.39;100648.03;10461684;28;19925;-62
2023/04/14 14:01:26;;;;;;;;;;;;;;;17.41;40.51;100654.34;10462157;28;19924;-62
2023/04/14 14:06:30;;;;;;;;;;;;;;;17.79;40.08;100658.84;10461250;28;20023;-63
2023/04/14 14:11:32;;;;;;;;;;;;;;;20.18;37.83;100636.25;10461096;28;19924;-63
2023/04/14 14:16:35;;;;;;;;;;;;;;;23.02;35.97;100618.66;10461984;28;19924;-62
2023/04/14 14:21:39;;;;;;;;;;;;;;;23.28;33.86;100615.69;10461932;28;19929;-63
2023/04/14 14:26:41;;;;;;;;;;;;;;;24.98;33.72;100602.81;10461050;28;20288;-63
2023/04/14 14:31:43;;;;;;;;;;;;;;;21.38;33.44;100604.44;10460819;28;20372;-63
2023/04/14 14:36:45;;;;;;;;;;;;;;;25.00;35.83;100599.94;10461131;28;20007;-63
2023/04/14 14:41:48;;;;;;;;;;;;;;;24.78;33.54;100589.16;10461079;28;19925;-63
2023/04/14 14:46:51;;;;;;;;;;;;;;;25.25;32.37;100584.38;10460625;28;19929;-63
2023/04/14 14:51:54;;;;;;;;;;;;;;;25.76;32.28;100586.94;10460538;28;19925;-63
2023/04/14 14:56:56;;;;;;;;;;;;;;;25.88;32.67;100581.88;10459941;28;20368;-64
2023/04/14 15:01:58;;;;;;;;;;;;;;;23.26;34.82;100570.44;10459453;28;19928;-61
2023/04/14 15:07:01;;;;;;;;;;;;;;;23.71;33.82;100576.00;10459037;28;19978;-62
2023/04/14 15:12:03;;;;;;;;;;;;;;;22.24;36.10;100578.31;10459205;28;20299;-62
2023/04/14 15:17:05;;;;;;;;;;;;;;;20.79;38.67;100575.13;10459527;28;19925;-62
2023/04/14 15:22:08;;;;;;;;;;;;;;;19.91;37.06;100560.16;10458808;28;20391;-62
2023/04/14 15:27:10;;;;;;;;;;;;;;;20.35;38.04;100567.25;10458569;28;20256;-62
2023/04/14 15:32:12;;;;;;;;;;;;;;;22.63;35.13;100562.41;10457214;28;20364;-62
2023/04/14 15:37:14;;;;;;;;;;;;;;;21.81;33.27;100562.56;10458665;28;20003;-62
2023/04/14 15:42:19;;;;;;;;;;;;;;;20.15;35.24;100566.63;10457366;28;20305;-62
2023/04/14 15:47:21;;;;;;;;;;;;;;;19.43;37.46;100572.00;10457471;28;20430;-62
2023/04/14 15:52:23;;;;;;;;;;;;;;;18.88;39.97;100571.09;10458993;28;19970;-62
2023/04/14 15:57:25;;;;;;;;;;;;;;;18.97;41.57;100579.16;10458158;28;19955;-62
2023/04/14 16:02:28;;;;;;;;;;;;;;;18.24;40.23;100569.19;10457988;28;19966;-63
2023/04/14 16:07:33;;;;;;;;;;;;;;;18.10;42.67;100573.97;10456082;28;20015;-62
2023/04/14 16:12:36;;;;;;;;;;;;;;;17.97;43.41;100571.63;10457474;28;19974;-61
2023/04/14 16:17:38;;;;;;;;;;;;;;;19.34;41.97;100575.56;10456798;28;20008;-62
2023/04/14 16:22:40;;;;;;;;;;;;;;;21.02;37.88;100564.75;10457469;28;20015;-62
2023/04/14 16:27:42;;;;;;;;;;;;;;;20.88;38.62;100566.22;10456746;28;20367;-62
2023/04/14 16:32:45;;;;;;;;;;;;;;;20.17;39.72;100564.66;10456692;28;20284;-62
2023/04/14 16:37:47;;;;;;;;;;;;;;;17.68;41.79;100571.63;10457180;28;19928;-62
2023/04/14 16:42:49;;;;;;;;;;;;;;;16.98;43.03;100570.81;10457110;28;19959;-62
2023/04/14 16:47:52;;;;;;;;;;;;;;;16.65;42.85;100564.84;10457086;28;19971;-61
2023/04/14 16:52:54;;;;;;;;;;;;;;;16.32;45.34;100570.28;10456286;28;19925;-62
2023/04/14 16:57:57;;;;;;;;;;;;;;;16.31;48.91;100563.31;10460102;28;19925;-61
2023/04/14 17:02:59;;;;;;;;;;;;;;;15.85;50.78;100571.63;10464133;28;19959;-61
2023/04/14 17:08:02;;;;;;;;;;;;;;;15.52;50.75;100570.78;10464704;28;19982;-62
2023/04/14 17:13:04;;;;;;;;;;;;;;;15.47;51.20;100579.06;10457731;28;19925;-61
2023/04/14 17:18:06;;;;;;;;;;;;;;;15.50;52.28;100578.81;10442776;28;19925;-61
2023/04/14 17:23:09;;;;;;;;;;;;;;;15.21;51.37;100575.91;10423870;28;20016;-61
2023/04/14 17:28:11;;;;;;;;;;;;;;;14.96;52.25;100583.16;10438188;28;19925;-61
2023/04/14 17:33:16;;;;;;;;;;;;;;;14.58;54.13;100584.31;10422707;28;19928;-62
2023/04/14 17:38:18;;;;;;;;;;;;;;;14.25;54.57;100585.13;10456957;28;19925;-62
2023/04/14 17:43:21;;;;;;;;;;;;;;;14.07;56.68;100595.22;10423339;28;19929;-61
2023/04/14 17:48:24;;;;;;;;;;;;;;;13.81;57.91;100598.03;10424071;28;19979;-61
2023/04/14 17:53:26;;;;;;;;;;;;;;;13.52;58.70;100606.28;10430282;28;20360;-65
2023/04/14 17:58:29;;;;;;;;;;;;;;;13.45;60.47;100607.69;10420158;28;20392;-61
2023/04/14 18:03:31;;;;;;;;;;;;;;;13.28;60.95;100613.25;10420987;28;20444;-61
2023/04/14 18:08:33;;;;;;;;;;;;;;;13.08;63.04;100618.16;10442606;28;19925;-61
2023/04/14 18:13:36;;;;;;;;;;;;;;;13.12;63.26;100614.38;10431601;28;19925;-61
2023/04/14 18:18:38;;;;;;;;;;;;;;;12.89;64.41;100625.66;10427479;28;19925;-61
2023/04/14 18:23:40;;;;;;;;;;;;;;;13.19;60.79;100622.66;10419556;28;19975;-61
2023/04/14 18:28:43;;;;;;;;;;;;;;;13.00;60.65;100625.75;10420351;28;19971;-61
2023/04/14 18:33:45;;;;;;;;;;;;;;;12.89;63.33;100634.38;10419546;28;20380;-61
2023/04/14 18:38:47;;;;;;;;;;;;;;;12.92;63.87;100635.97;10428671;28;20015;-61
2023/04/14 18:43:49;;;;;;;;;;;;;;;12.70;65.62;100632.19;10432173;28;19929;-61
2023/04/14 18:48:53;;;;;;;;;;;;;;;12.50;66.13;100638.81;10460017;28;20390;-61
2023/04/14 18:53:55;;;;;;;;;;;;;;;12.33;64.83;100644.38;10460376;28;19925;-61
2023/04/14 18:58:58;;;;;;;;;;;;;;;12.12;66.67;100651.88;10437070;28;19934;-61
2023/04/14 19:04:01;;;;;;;;;;;;;;;12.01;67.05;100652.59;10421146;28;19940;-61
2023/04/14 19:09:04;;;;;;;;;;;;;;;11.67;69.77;100668.69;10459384;28;19931;-61
2023/04/14 19:14:06;;;;;;;;;;;;;;;11.62;68.46;100670.78;10459779;28;19925;-61
2023/04/14 19:19:09;;;;;;;;;;;;;;;11.31;69.82;100677.97;10451895;28;19979;-61
2023/04/14 19:24:11;;;;;;;;;;;;;;;11.18;69.05;100679.66;10419749;28;19948;-61
2023/04/14 19:29:13;;;;;;;;;;;;;;;11.02;70.40;100685.00;10450060;28;20276;-61
2023/04/14 19:34:15;;;;;;;;;;;;;;;10.71;72.33;100684.22;10457266;28;19925;-61
2023/04/14 19:39:19;;;;;;;;;;;;;;;10.55;72.84;100691.31;10453992;28;19925;-61
2023/04/14 19:44:22;;;;;;;;;;;;;;;10.52;69.97;100686.25;10419201;28;19952;-61
2023/04/14 19:49:25;;;;;;;;;;;;;;;10.09;73.09;100693.94;10442954;28;19925;-60
2023/04/14 19:54:27;;;;;;;;;;;;;;;9.90;74.87;100692.38;10438105;28;19932;-61
2023/04/14 19:59:30;;;;;;;;;;;;;;;9.88;75.27;100694.22;10416921;28;19933;-60
2023/04/14 20:04:32;;;;;;;;;;;;;;;9.85;74.46;100697.00;10417227;28;19925;-60
2023/04/14 20:09:34;;;;;;;;;;;;;;;9.47;75.97;100697.34;10416736;28;19925;-61
2023/04/14 20:14:37;;;;;;;;;;;;;;;9.52;77.38;100697.09;10415817;28;19971;-60
2023/04/14 20:19:39;;;;;;;;;;;;;;;9.50;76.17;100699.81;10422479;28;19929;-61
2023/04/14 20:24:42;;;;;;;;;;;;;;;9.33;78.26;100699.84;10450160;28;19925;-61
2023/04/14 20:29:45;;;;;;;;;;;;;;;9.28;78.16;100705.34;10415574;28;20035;-60
2023/04/14 20:34:47;;;;;;;;;;;;;;;9.10;79.12;100697.53;10428722;28;20253;-61
2023/04/14 20:39:51;;;;;;;;;;;;;;;8.91;79.16;100704.66;10446749;28;19983;-60
2023/04/14 20:44:53;;;;;;;;;;;;;;;8.83;79.58;100699.84;10437915;28;19931;-60
2023/04/14 20:49:56;;;;;;;;;;;;;;;8.76;79.41;100711.53;10469633;28;19925;-60
2023/04/14 20:55:01;;;;;;;;;;;;;;;8.79;78.49;100703.50;10468923;28;19925;-60
2023/04/14 21:00:04;;;;;;;;;;;;;;;8.79;79.80;100700.91;10470658;28;19932;-60
2023/04/14 21:05:06;;;;;;;;;;;;;;;8.41;80.58;100708.88;10468936;28;19970;-60
2023/04/14 21:10:09;;;;;;;;;;;;;;;8.49;80.67;100703.31;10469800;28;19931;-60
2023/04/14 21:15:11;;;;;;;;;;;;;;;8.26;82.19;100701.81;10439213;28;19925;-61
2023/04/14 21:20:33;;;;;;;;;;;;;;;8.37;82.80;100704.72;10429135;28;19925;-60
2023/04/14 21:25:36;;;;;;;;;;;;;;;8.16;80.82;100706.63;10452709;28;19925;-60
2023/04/14 21:30:38;;;;;;;;;;;;;;;8.19;82.04;100709.94;10468847;28;19924;-60
2023/04/14 21:35:41;;;;;;;;;;;;;;;8.04;81.60;100709.84;10469939;28;19925;-60
2023/04/14 21:40:43;;;;;;;;;;;;;;;7.94;82.50;100709.44;10469984;28;19925;-60
2023/04/14 21:45:46;;;;;;;;;;;;;;;7.81;82.35;100720.44;10426262;28;19929;-60
2023/04/14 21:50:48;;;;;;;;;;;;;;;7.71;83.80;100720.94;10419772;28;19925;-60
2023/04/14 21:55:50;;;;;;;;;;;;;;;7.62;84.41;100719.63;10421560;28;19925;-60
2023/04/14 22:01:11;;;;;;;;;;;;;;;7.74;83.67;100720.81;10420845;28;19925;-60
2023/04/14 22:06:13;;;;;;;;;;;;;;;7.51;85.88;100719.25;10441593;28;20034;-60
2023/04/14 22:11:16;;;;;;;;;;;;;;;7.44;87.00;100716.94;10460621;28;19932;-60
2023/04/14 22:16:18;;;;;;;;;;;;;;;7.23;87.20;100715.31;10462078;28;19925;-66
2023/04/14 22:21:20;;;;;;;;;;;;;;;7.26;87.84;100725.56;10459203;28;19955;-67
2023/04/14 22:26:23;;;;;;;;;;;;;;;7.07;88.90;100722.94;10419472;28;19929;-68
2023/04/14 22:31:26;;;;;;;;;;;;;;;7.10;87.82;100725.41;10419856;28;19925;-68
2023/04/14 22:36:29;;;;;;;;;;;;;;;7.02;89.53;100733.56;10420160;28;19984;-67
2023/04/14 22:41:31;;;;;;;;;;;;;;;6.95;90.42;100737.34;10434150;28;20419;-67
2023/04/14 22:46:33;;;;;;;;;;;;;;;6.66;91.86;100743.78;10435514;28;19929;-67
2023/04/14 22:51:36;;;;;;;;;;;;;;;6.83;90.47;100743.91;10434173;28;20375;-68
2023/04/14 22:56:39;;;;;;;;;;;;;;;6.96;86.74;100749.44;10458780;28;19924;-67
2023/04/14 23:01:41;;;;;;;;;;;;;;;6.79;86.56;100749.31;10458436;28;19928;-67
2023/04/14 23:06:44;;;;;;;;;;;;;;;6.58;89.57;100749.31;10433154;28;19975;-67
2023/04/14 23:11:46;;;;;;;;;;;;;;;6.68;87.70;100758.41;10416910;28;20273;-67
2023/04/14 23:16:48;;;;;;;;;;;;;;;6.75;88.61;100759.00;10418110;28;20422;-67
2023/04/14 23:21:51;;;;;;;;;;;;;;;6.67;88.22;100766.28;10417827;28;19971;-67
2023/04/14 23:26:53;;;;;;;;;;;;;;;6.65;88.46;100761.13;10423481;28;19925;-67
2023/04/14 23:31:56;;;;;;;;;;;;;;;6.39;89.65;100767.44;10459187;28;19928;-67
2023/04/14 23:36:58;;;;;;;;;;;;;;;6.51;87.64;100759.13;10458312;28;20291;-67
2023/04/14 23:42:00;;;;;;;;;;;;;;;6.24;91.43;100763.69;10457444;28;19932;-67
2023/04/14 23:47:02;;;;;;;;;;;;;;;6.28;90.24;100761.81;10430088;28;19931;-67
2023/04/14 23:52:07;;;;;;;;;;;;;;;6.39;90.04;100767.44;10416645;28;19948;-67
2023/04/14 23:57:09;;;;;;;;;;;;;;;6.06;90.84;100772.22;10416624;28;19991;-67
